sensor_id;sensor_type;location;lat;lon;timestamp;P1;durP1;ratioP1;P2;durP2;ratioP2
3121;SDS011;1571;52.524;14.104;2023-09-07T00:01:07;5.33;;;4.80;;
3121;SDS011;1571;52.524;14.104;2023-09-07T00:03:35;6.17;;;5.27;;
3121;SDS011;1571;52.524;14.104;2023-09-07T00:06:08;6.63;;;5.53;;
3121;SDS011;1571;52.524;14.104;2023-09-07T00:08:37;5.07;;;4.53;;
3121;SDS011;1571;52.524;14.104;2023-09-07T00:11:08;5.90;;;5.30;;
3121;SDS011;1571;52.524;14.104;2023-09-07T00:13:37;4.70;;;4.40;;
3121;SDS011;1571;52.524;14.104;2023-09-07T00:16:05;6.93;;;4.90;;
3121;SDS011;1571;52.524;14.104;2023-09-07T00:18:34;5.70;;;5.20;;
3121;SDS011;1571;52.524;14.104;2023-09-07T00:21:03;6.43;;;5.93;;
3121;SDS011;1571;52.524;14.104;2023-09-07T00:23:31;8.43;;;4.60;;
3121;SDS011;1571;52.524;14.104;2023-09-07T00:25:59;5.83;;;5.23;;
3121;SDS011;1571;52.524;14.104;2023-09-07T00:28:29;5.37;;;4.87;;
3121;SDS011;1571;52.524;14.104;2023-09-07T00:30:57;5.57;;;4.90;;
3121;SDS011;1571;52.524;14.104;2023-09-07T00:33:26;5.80;;;5.20;;
3121;SDS011;1571;52.524;14.104;2023-09-07T00:35:54;5.63;;;5.00;;
3121;SDS011;1571;52.524;14.104;2023-09-07T00:38:22;5.20;;;4.63;;
3121;SDS011;1571;52.524;14.104;2023-09-07T00:40:51;5.43;;;4.40;;
3121;SDS011;1571;52.524;14.104;2023-09-07T00:43:19;5.50;;;5.00;;
3121;SDS011;1571;52.524;14.104;2023-09-07T00:45:49;5.47;;;4.97;;
3121;SDS011;1571;52.524;14.104;2023-09-07T00:48:17;4.70;;;4.37;;
3121;SDS011;1571;52.524;14.104;2023-09-07T00:50:46;5.43;;;4.90;;
3121;SDS011;1571;52.524;14.104;2023-09-07T00:53:15;5.60;;;5.13;;
3121;SDS011;1571;52.524;14.104;2023-09-07T00:55:44;4.93;;;4.43;;
3121;SDS011;1571;52.524;14.104;2023-09-07T00:58:13;6.23;;;4.80;;
3121;SDS011;1571;52.524;14.104;2023-09-07T01:00:42;7.00;;;5.17;;
3121;SDS011;1571;52.524;14.104;2023-09-07T01:03:12;5.47;;;4.37;;
3121;SDS011;1571;52.524;14.104;2023-09-07T01:05:41;3.80;;;3.53;;
3121;SDS011;1571;52.524;14.104;2023-09-07T01:08:26;5.50;;;4.47;;
3121;SDS011;1571;52.524;14.104;2023-09-07T01:10:57;4.80;;;4.10;;
3121;SDS011;1571;52.524;14.104;2023-09-07T01:13:26;4.20;;;3.90;;
3121;SDS011;1571;52.524;14.104;2023-09-07T01:15:54;4.97;;;4.30;;
3121;SDS011;1571;52.524;14.104;2023-09-07T01:18:24;4.43;;;4.03;;
3121;SDS011;1571;52.524;14.104;2023-09-07T01:20:52;5.10;;;4.70;;
3121;SDS011;1571;52.524;14.104;2023-09-07T01:23:24;7.43;;;4.57;;
3121;SDS011;1571;52.524;14.104;2023-09-07T01:25:53;4.67;;;4.30;;
3121;SDS011;1571;52.524;14.104;2023-09-07T01:28:23;5.60;;;4.40;;
3121;SDS011;1571;52.524;14.104;2023-09-07T01:30:51;5.20;;;4.70;;
3121;SDS011;1571;52.524;14.104;2023-09-07T01:33:20;5.03;;;4.60;;
3121;SDS011;1571;52.524;14.104;2023-09-07T01:35:49;4.83;;;4.37;;
3121;SDS011;1571;52.524;14.104;2023-09-07T01:38:18;5.67;;;4.03;;
3121;SDS011;1571;52.524;14.104;2023-09-07T01:40:48;6.27;;;5.30;;
3121;SDS011;1571;52.524;14.104;2023-09-07T01:43:16;4.93;;;4.47;;
3121;SDS011;1571;52.524;14.104;2023-09-07T01:45:44;6.13;;;5.63;;
3121;SDS011;1571;52.524;14.104;2023-09-07T01:48:13;4.70;;;4.40;;
3121;SDS011;1571;52.524;14.104;2023-09-07T01:50:42;5.13;;;4.27;;
3121;SDS011;1571;52.524;14.104;2023-09-07T01:53:10;4.63;;;4.23;;
3121;SDS011;1571;52.524;14.104;2023-09-07T01:55:39;4.30;;;3.90;;
3121;SDS011;1571;52.524;14.104;2023-09-07T01:58:08;4.43;;;4.03;;
3121;SDS011;1571;52.524;14.104;2023-09-07T02:00:37;4.70;;;4.40;;
3121;SDS011;1571;52.524;14.104;2023-09-07T02:03:06;4.93;;;4.37;;
3121;SDS011;1571;52.524;14.104;2023-09-07T02:05:35;7.30;;;4.37;;
3121;SDS011;1571;52.524;14.104;2023-09-07T02:08:03;5.83;;;3.83;;
3121;SDS011;1571;52.524;14.104;2023-09-07T02:10:33;4.30;;;3.90;;
3121;SDS011;1571;52.524;14.104;2023-09-07T02:13:01;4.93;;;4.43;;
3121;SDS011;1571;52.524;14.104;2023-09-07T02:15:32;5.33;;;3.83;;
3121;SDS011;1571;52.524;14.104;2023-09-07T02:18:00;7.90;;;4.97;;
3121;SDS011;1571;52.524;14.104;2023-09-07T02:20:31;7.83;;;5.33;;
3121;SDS011;1571;52.524;14.104;2023-09-07T02:22:59;6.00;;;5.20;;
3121;SDS011;1571;52.524;14.104;2023-09-07T02:25:30;5.73;;;5.23;;
3121;SDS011;1571;52.524;14.104;2023-09-07T02:27:58;5.20;;;4.80;;
3121;SDS011;1571;52.524;14.104;2023-09-07T02:30:27;5.40;;;4.90;;
3121;SDS011;1571;52.524;14.104;2023-09-07T02:32:56;7.73;;;6.40;;
3121;SDS011;1571;52.524;14.104;2023-09-07T02:35:26;5.03;;;4.53;;
3121;SDS011;1571;52.524;14.104;2023-09-07T02:37:55;5.60;;;4.00;;
3121;SDS011;1571;52.524;14.104;2023-09-07T02:40:23;6.40;;;4.50;;
3121;SDS011;1571;52.524;14.104;2023-09-07T02:42:51;5.57;;;4.97;;
3121;SDS011;1571;52.524;14.104;2023-09-07T02:45:20;5.30;;;4.70;;
3121;SDS011;1571;52.524;14.104;2023-09-07T02:47:48;5.07;;;4.57;;
3121;SDS011;1571;52.524;14.104;2023-09-07T02:50:19;4.97;;;4.57;;
3121;SDS011;1571;52.524;14.104;2023-09-07T02:52:48;6.03;;;5.53;;
3121;SDS011;1571;52.524;14.104;2023-09-07T02:55:16;5.63;;;5.00;;
3121;SDS011;1571;52.524;14.104;2023-09-07T02:57:44;5.40;;;4.90;;
3121;SDS011;1571;52.524;14.104;2023-09-07T03:00:13;5.10;;;4.57;;
3121;SDS011;1571;52.524;14.104;2023-09-07T03:02:44;7.87;;;5.80;;
3121;SDS011;1571;52.524;14.104;2023-09-07T03:05:12;6.07;;;4.57;;
3121;SDS011;1571;52.524;14.104;2023-09-07T03:07:44;6.33;;;5.07;;
3121;SDS011;1571;52.524;14.104;2023-09-07T03:10:16;5.30;;;4.90;;
3121;SDS011;1571;52.524;14.104;2023-09-07T03:12:45;4.47;;;4.10;;
3121;SDS011;1571;52.524;14.104;2023-09-07T03:15:14;6.80;;;6.23;;
3121;SDS011;1571;52.524;14.104;2023-09-07T03:17:44;6.60;;;5.93;;
3121;SDS011;1571;52.524;14.104;2023-09-07T03:20:13;5.60;;;4.73;;
3121;SDS011;1571;52.524;14.104;2023-09-07T03:22:46;6.37;;;4.90;;
3121;SDS011;1571;52.524;14.104;2023-09-07T03:25:15;11.70;;;5.87;;
3121;SDS011;1571;52.524;14.104;2023-09-07T03:27:44;7.73;;;5.10;;
3121;SDS011;1571;52.524;14.104;2023-09-07T03:30:13;6.43;;;5.83;;
3121;SDS011;1571;52.524;14.104;2023-09-07T03:32:42;5.63;;;5.23;;
3121;SDS011;1571;52.524;14.104;2023-09-07T03:35:11;5.80;;;5.20;;
3121;SDS011;1571;52.524;14.104;2023-09-07T03:37:39;8.53;;;6.60;;
3121;SDS011;1571;52.524;14.104;2023-09-07T03:40:11;8.33;;;6.10;;
3121;SDS011;1571;52.524;14.104;2023-09-07T03:42:40;6.23;;;5.63;;
3121;SDS011;1571;52.524;14.104;2023-09-07T03:45:10;6.97;;;6.30;;
3121;SDS011;1571;52.524;14.104;2023-09-07T03:47:39;5.93;;;5.07;;
3121;SDS011;1571;52.524;14.104;2023-09-07T03:50:09;6.00;;;5.40;;
3121;SDS011;1571;52.524;14.104;2023-09-07T03:52:38;7.70;;;6.17;;
3121;SDS011;1571;52.524;14.104;2023-09-07T03:55:07;6.77;;;5.93;;
3121;SDS011;1571;52.524;14.104;2023-09-07T03:57:38;10.10;;;8.10;;
3121;SDS011;1571;52.524;14.104;2023-09-07T04:00:07;7.80;;;7.10;;
3121;SDS011;1571;52.524;14.104;2023-09-07T04:02:46;7.10;;;6.13;;
3121;SDS011;1571;52.524;14.104;2023-09-07T04:05:15;6.57;;;5.70;;
3121;SDS011;1571;52.524;14.104;2023-09-07T04:07:43;7.00;;;6.13;;
3121;SDS011;1571;52.524;14.104;2023-09-07T04:10:11;6.20;;;5.60;;
3121;SDS011;1571;52.524;14.104;2023-09-07T04:12:41;5.33;;;4.57;;
3121;SDS011;1571;52.524;14.104;2023-09-07T04:15:10;8.50;;;5.90;;
3121;SDS011;1571;52.524;14.104;2023-09-07T04:17:38;5.50;;;5.00;;
3121;SDS011;1571;52.524;14.104;2023-09-07T04:20:08;6.40;;;5.80;;
3121;SDS011;1571;52.524;14.104;2023-09-07T04:22:39;5.40;;;5.00;;
3121;SDS011;1571;52.524;14.104;2023-09-07T04:25:08;6.13;;;5.53;;
3121;SDS011;1571;52.524;14.104;2023-09-07T04:27:41;6.00;;;5.50;;
3121;SDS011;1571;52.524;14.104;2023-09-07T04:30:10;4.80;;;4.10;;
3121;SDS011;1571;52.524;14.104;2023-09-07T04:32:38;5.00;;;4.50;;
3121;SDS011;1571;52.524;14.104;2023-09-07T04:35:07;5.20;;;4.70;;
3121;SDS011;1571;52.524;14.104;2023-09-07T04:37:37;4.53;;;4.13;;
3121;SDS011;1571;52.524;14.104;2023-09-07T04:40:06;6.23;;;4.70;;
3121;SDS011;1571;52.524;14.104;2023-09-07T04:42:34;8.33;;;4.40;;
3121;SDS011;1571;52.524;14.104;2023-09-07T04:45:04;7.17;;;6.57;;
3121;SDS011;1571;52.524;14.104;2023-09-07T04:47:33;5.23;;;4.80;;
3121;SDS011;1571;52.524;14.104;2023-09-07T04:50:06;5.87;;;5.27;;
3121;SDS011;1571;52.524;14.104;2023-09-07T04:52:35;6.60;;;5.57;;
3121;SDS011;1571;52.524;14.104;2023-09-07T04:55:04;6.57;;;4.63;;
3121;SDS011;1571;52.524;14.104;2023-09-07T04:57:35;6.00;;;4.60;;
3121;SDS011;1571;52.524;14.104;2023-09-07T05:00:06;4.70;;;4.30;;
3121;SDS011;1571;52.524;14.104;2023-09-07T05:02:36;5.23;;;4.80;;
3121;SDS011;1571;52.524;14.104;2023-09-07T05:05:09;4.77;;;4.37;;
3121;SDS011;1571;52.524;14.104;2023-09-07T05:07:37;5.20;;;4.70;;
3121;SDS011;1571;52.524;14.104;2023-09-07T05:10:07;4.67;;;4.27;;
3121;SDS011;1571;52.524;14.104;2023-09-07T05:12:39;8.70;;;5.70;;
3121;SDS011;1571;52.524;14.104;2023-09-07T05:15:09;5.60;;;5.00;;
3121;SDS011;1571;52.524;14.104;2023-09-07T05:17:38;5.20;;;4.13;;
3121;SDS011;1571;52.524;14.104;2023-09-07T05:20:07;5.27;;;4.77;;
3121;SDS011;1571;52.524;14.104;2023-09-07T05:22:36;7.27;;;6.50;;
3121;SDS011;1571;52.524;14.104;2023-09-07T05:25:07;5.63;;;4.90;;
3121;SDS011;1571;52.524;14.104;2023-09-07T05:27:36;5.23;;;4.73;;
3121;SDS011;1571;52.524;14.104;2023-09-07T05:30:05;6.70;;;6.03;;
3121;SDS011;1571;52.524;14.104;2023-09-07T05:32:36;7.43;;;6.10;;
3121;SDS011;1571;52.524;14.104;2023-09-07T05:35:04;5.27;;;4.77;;
3121;SDS011;1571;52.524;14.104;2023-09-07T05:37:33;6.47;;;5.57;;
3121;SDS011;1571;52.524;14.104;2023-09-07T05:40:01;6.80;;;6.23;;
3121;SDS011;1571;52.524;14.104;2023-09-07T05:42:31;5.67;;;5.10;;
3121;SDS011;1571;52.524;14.104;2023-09-07T05:44:59;7.43;;;6.73;;
3121;SDS011;1571;52.524;14.104;2023-09-07T05:47:28;9.10;;;7.70;;
3121;SDS011;1571;52.524;14.104;2023-09-07T05:49:58;9.30;;;7.37;;
3121;SDS011;1571;52.524;14.104;2023-09-07T05:52:26;7.90;;;7.10;;
3121;SDS011;1571;52.524;14.104;2023-09-07T05:54:54;10.53;;;9.53;;
3121;SDS011;1571;52.524;14.104;2023-09-07T05:57:22;9.33;;;8.40;;
3121;SDS011;1571;52.524;14.104;2023-09-07T05:59:51;8.63;;;6.73;;
3121;SDS011;1571;52.524;14.104;2023-09-07T06:02:19;9.50;;;8.17;;
3121;SDS011;1571;52.524;14.104;2023-09-07T06:04:47;9.30;;;7.10;;
3121;SDS011;1571;52.524;14.104;2023-09-07T06:07:17;12.03;;;8.90;;
3121;SDS011;1571;52.524;14.104;2023-09-07T06:09:46;9.50;;;7.80;;
3121;SDS011;1571;52.524;14.104;2023-09-07T06:12:14;11.80;;;8.73;;
3121;SDS011;1571;52.524;14.104;2023-09-07T06:14:42;9.37;;;8.33;;
3121;SDS011;1571;52.524;14.104;2023-09-07T06:17:11;9.63;;;8.63;;
3121;SDS011;1571;52.524;14.104;2023-09-07T06:19:40;9.70;;;8.70;;
3121;SDS011;1571;52.524;14.104;2023-09-07T06:22:08;10.37;;;9.13;;
3121;SDS011;1571;52.524;14.104;2023-09-07T06:24:38;10.60;;;8.77;;
3121;SDS011;1571;52.524;14.104;2023-09-07T06:27:07;11.20;;;8.70;;
3121;SDS011;1571;52.524;14.104;2023-09-07T06:29:35;10.27;;;9.23;;
3121;SDS011;1571;52.524;14.104;2023-09-07T06:32:03;12.00;;;9.20;;
3121;SDS011;1571;52.524;14.104;2023-09-07T06:34:32;9.13;;;8.20;;
3121;SDS011;1571;52.524;14.104;2023-09-07T06:37:01;10.30;;;9.40;;
3121;SDS011;1571;52.524;14.104;2023-09-07T06:39:29;10.77;;;8.87;;
3121;SDS011;1571;52.524;14.104;2023-09-07T06:41:59;10.50;;;9.00;;
3121;SDS011;1571;52.524;14.104;2023-09-07T06:44:34;11.00;;;9.90;;
3121;SDS011;1571;52.524;14.104;2023-09-07T06:47:02;8.77;;;7.87;;
3121;SDS011;1571;52.524;14.104;2023-09-07T06:49:31;10.00;;;8.30;;
3121;SDS011;1571;52.524;14.104;2023-09-07T06:51:59;11.80;;;8.90;;
3121;SDS011;1571;52.524;14.104;2023-09-07T06:54:29;9.33;;;7.97;;
3121;SDS011;1571;52.524;14.104;2023-09-07T06:57:00;11.67;;;8.80;;
3121;SDS011;1571;52.524;14.104;2023-09-07T06:59:28;11.43;;;9.23;;
3121;SDS011;1571;52.524;14.104;2023-09-07T07:01:57;9.20;;;8.30;;
3121;SDS011;1571;52.524;14.104;2023-09-07T07:04:27;10.60;;;9.60;;
3121;SDS011;1571;52.524;14.104;2023-09-07T07:06:55;9.83;;;8.90;;
3121;SDS011;1571;52.524;14.104;2023-09-07T07:09:24;8.87;;;8.00;;
3121;SDS011;1571;52.524;14.104;2023-09-07T07:11:52;13.37;;;8.33;;
3121;SDS011;1571;52.524;14.104;2023-09-07T07:14:22;9.33;;;8.10;;
3121;SDS011;1571;52.524;14.104;2023-09-07T07:16:50;12.63;;;9.70;;
3121;SDS011;1571;52.524;14.104;2023-09-07T07:19:18;9.80;;;8.10;;
3121;SDS011;1571;52.524;14.104;2023-09-07T07:21:47;11.00;;;8.73;;
3121;SDS011;1571;52.524;14.104;2023-09-07T07:24:16;10.07;;;8.27;;
3121;SDS011;1571;52.524;14.104;2023-09-07T07:26:45;9.03;;;8.13;;
3121;SDS011;1571;52.524;14.104;2023-09-07T07:29:14;8.73;;;7.63;;
3121;SDS011;1571;52.524;14.104;2023-09-07T07:31:44;13.53;;;6.97;;
3121;SDS011;1571;52.524;14.104;2023-09-07T07:34:14;10.70;;;8.33;;
3121;SDS011;1571;52.524;14.104;2023-09-07T07:36:44;9.50;;;8.70;;
3121;SDS011;1571;52.524;14.104;2023-09-07T07:39:13;8.50;;;7.57;;
3121;SDS011;1571;52.524;14.104;2023-09-07T07:41:42;9.60;;;7.50;;
3121;SDS011;1571;52.524;14.104;2023-09-07T07:44:13;8.03;;;7.20;;
3121;SDS011;1571;52.524;14.104;2023-09-07T07:46:41;7.17;;;6.47;;
3121;SDS011;1571;52.524;14.104;2023-09-07T07:49:11;9.30;;;7.20;;
3121;SDS011;1571;52.524;14.104;2023-09-07T07:51:40;7.40;;;6.60;;
3121;SDS011;1571;52.524;14.104;2023-09-07T07:54:10;12.20;;;6.63;;
3121;SDS011;1571;52.524;14.104;2023-09-07T07:56:38;8.30;;;7.37;;
3121;SDS011;1571;52.524;14.104;2023-09-07T07:59:07;8.20;;;7.33;;
3121;SDS011;1571;52.524;14.104;2023-09-07T08:01:36;6.97;;;6.30;;
3121;SDS011;1571;52.524;14.104;2023-09-07T08:04:05;8.90;;;7.23;;
3121;SDS011;1571;52.524;14.104;2023-09-07T08:06:36;7.53;;;6.23;;
3121;SDS011;1571;52.524;14.104;2023-09-07T08:09:04;7.70;;;6.07;;
3121;SDS011;1571;52.524;14.104;2023-09-07T08:11:32;7.33;;;6.70;;
3121;SDS011;1571;52.524;14.104;2023-09-07T08:14:01;8.93;;;6.60;;
3121;SDS011;1571;52.524;14.104;2023-09-07T08:16:30;7.53;;;6.80;;
3121;SDS011;1571;52.524;14.104;2023-09-07T08:18:58;8.83;;;6.83;;
3121;SDS011;1571;52.524;14.104;2023-09-07T08:21:27;6.63;;;5.93;;
3121;SDS011;1571;52.524;14.104;2023-09-07T08:23:56;6.87;;;6.27;;
3121;SDS011;1571;52.524;14.104;2023-09-07T08:26:25;6.90;;;5.73;;
3121;SDS011;1571;52.524;14.104;2023-09-07T08:28:53;6.80;;;6.03;;
3121;SDS011;1571;52.524;14.104;2023-09-07T08:31:21;11.53;;;6.23;;
3121;SDS011;1571;52.524;14.104;2023-09-07T08:33:50;6.00;;;5.40;;
3121;SDS011;1571;52.524;14.104;2023-09-07T08:36:18;8.30;;;5.43;;
3121;SDS011;1571;52.524;14.104;2023-09-07T08:38:50;6.30;;;5.70;;
3121;SDS011;1571;52.524;14.104;2023-09-07T08:41:22;7.67;;;5.80;;
3121;SDS011;1571;52.524;14.104;2023-09-07T08:43:51;6.80;;;5.20;;
3121;SDS011;1571;52.524;14.104;2023-09-07T08:46:22;4.53;;;3.70;;
3121;SDS011;1571;52.524;14.104;2023-09-07T08:48:51;5.77;;;5.27;;
3121;SDS011;1571;52.524;14.104;2023-09-07T08:51:24;6.23;;;4.90;;
3121;SDS011;1571;52.524;14.104;2023-09-07T08:53:55;4.30;;;3.93;;
3121;SDS011;1571;52.524;14.104;2023-09-07T08:56:24;4.40;;;4.00;;
3121;SDS011;1571;52.524;14.104;2023-09-07T08:58:53;6.17;;;4.87;;
3121;SDS011;1571;52.524;14.104;2023-09-07T09:01:21;6.63;;;4.77;;
3121;SDS011;1571;52.524;14.104;2023-09-07T09:03:50;5.17;;;4.70;;
3121;SDS011;1571;52.524;14.104;2023-09-07T09:06:19;5.77;;;5.00;;
3121;SDS011;1571;52.524;14.104;2023-09-07T09:08:49;6.30;;;4.97;;
3121;SDS011;1571;52.524;14.104;2023-09-07T09:11:19;4.57;;;4.17;;
3121;SDS011;1571;52.524;14.104;2023-09-07T09:13:50;8.13;;;5.50;;
3121;SDS011;1571;52.524;14.104;2023-09-07T09:16:20;5.20;;;4.70;;
3121;SDS011;1571;52.524;14.104;2023-09-07T09:18:49;4.80;;;4.40;;
3121;SDS011;1571;52.524;14.104;2023-09-07T09:21:18;5.47;;;4.77;;
3121;SDS011;1571;52.524;14.104;2023-09-07T09:23:48;4.30;;;3.90;;
3121;SDS011;1571;52.524;14.104;2023-09-07T09:26:18;4.60;;;4.27;;
3121;SDS011;1571;52.524;14.104;2023-09-07T09:28:49;3.53;;;3.20;;
3121;SDS011;1571;52.524;14.104;2023-09-07T09:31:19;5.03;;;3.60;;
3121;SDS011;1571;52.524;14.104;2023-09-07T09:33:48;4.67;;;4.10;;
3121;SDS011;1571;52.524;14.104;2023-09-07T09:36:18;4.23;;;3.83;;
3121;SDS011;1571;52.524;14.104;2023-09-07T09:38:47;3.87;;;3.10;;
3121;SDS011;1571;52.524;14.104;2023-09-07T09:41:17;5.03;;;4.50;;
3121;SDS011;1571;52.524;14.104;2023-09-07T09:43:46;4.47;;;4.07;;
3121;SDS011;1571;52.524;14.104;2023-09-07T09:46:17;5.07;;;4.67;;
3121;SDS011;1571;52.524;14.104;2023-09-07T09:48:46;4.77;;;4.33;;
3121;SDS011;1571;52.524;14.104;2023-09-07T09:51:15;4.90;;;4.10;;
3121;SDS011;1571;52.524;14.104;2023-09-07T09:53:45;4.47;;;4.07;;
3121;SDS011;1571;52.524;14.104;2023-09-07T09:56:13;4.63;;;4.23;;
3121;SDS011;1571;52.524;14.104;2023-09-07T09:58:42;4.73;;;4.33;;
3121;SDS011;1571;52.524;14.104;2023-09-07T10:01:10;3.40;;;3.20;;
3121;SDS011;1571;52.524;14.104;2023-09-07T10:03:45;3.67;;;3.43;;
3121;SDS011;1571;52.524;14.104;2023-09-07T10:06:19;3.70;;;3.40;;
3121;SDS011;1571;52.524;14.104;2023-09-07T10:08:52;3.70;;;3.40;;
3121;SDS011;1571;52.524;14.104;2023-09-07T10:11:31;3.73;;;3.43;;
3121;SDS011;1571;52.524;14.104;2023-09-07T10:14:01;4.10;;;3.77;;
3121;SDS011;1571;52.524;14.104;2023-09-07T10:16:40;3.70;;;3.40;;
3121;SDS011;1571;52.524;14.104;2023-09-07T10:19:15;3.20;;;2.97;;
3121;SDS011;1571;52.524;14.104;2023-09-07T10:21:44;5.27;;;3.93;;
3121;SDS011;1571;52.524;14.104;2023-09-07T10:24:23;5.60;;;3.17;;
3121;SDS011;1571;52.524;14.104;2023-09-07T10:26:55;3.17;;;2.87;;
3121;SDS011;1571;52.524;14.104;2023-09-07T10:29:25;3.87;;;3.50;;
3121;SDS011;1571;52.524;14.104;2023-09-07T10:31:54;3.37;;;3.10;;
3121;SDS011;1571;52.524;14.104;2023-09-07T10:34:35;3.80;;;3.40;;
3121;SDS011;1571;52.524;14.104;2023-09-07T10:37:05;4.83;;;3.80;;
3121;SDS011;1571;52.524;14.104;2023-09-07T10:39:34;4.00;;;3.70;;
3121;SDS011;1571;52.524;14.104;2023-09-07T10:42:04;3.57;;;3.33;;
3121;SDS011;1571;52.524;14.104;2023-09-07T10:44:32;6.50;;;3.90;;
3121;SDS011;1571;52.524;14.104;2023-09-07T10:47:00;5.57;;;3.90;;
3121;SDS011;1571;52.524;14.104;2023-09-07T10:49:31;4.83;;;4.40;;
3121;SDS011;1571;52.524;14.104;2023-09-07T10:52:01;4.23;;;3.93;;
3121;SDS011;1571;52.524;14.104;2023-09-07T10:54:31;3.80;;;3.50;;
3121;SDS011;1571;52.524;14.104;2023-09-07T10:57:07;5.27;;;3.20;;
3121;SDS011;1571;52.524;14.104;2023-09-07T10:59:36;3.60;;;2.30;;
3121;SDS011;1571;52.524;14.104;2023-09-07T11:02:04;3.37;;;2.57;;
3121;SDS011;1571;52.524;14.104;2023-09-07T11:04:33;2.87;;;2.70;;
3121;SDS011;1571;52.524;14.104;2023-09-07T11:07:03;3.30;;;2.70;;
3121;SDS011;1571;52.524;14.104;2023-09-07T11:09:32;3.33;;;3.03;;
3121;SDS011;1571;52.524;14.104;2023-09-07T11:12:03;3.10;;;2.90;;
3121;SDS011;1571;52.524;14.104;2023-09-07T11:14:32;2.60;;;2.40;;
3121;SDS011;1571;52.524;14.104;2023-09-07T11:17:01;2.97;;;2.67;;
3121;SDS011;1571;52.524;14.104;2023-09-07T11:19:31;2.07;;;1.97;;
3121;SDS011;1571;52.524;14.104;2023-09-07T11:22:00;2.73;;;2.53;;
3121;SDS011;1571;52.524;14.104;2023-09-07T11:24:32;3.00;;;2.23;;
3121;SDS011;1571;52.524;14.104;2023-09-07T11:27:02;3.07;;;2.70;;
3121;SDS011;1571;52.524;14.104;2023-09-07T11:29:31;2.77;;;2.47;;
3121;SDS011;1571;52.524;14.104;2023-09-07T11:32:06;3.10;;;2.90;;
3121;SDS011;1571;52.524;14.104;2023-09-07T11:34:46;3.13;;;2.93;;
3121;SDS011;1571;52.524;14.104;2023-09-07T11:37:16;2.57;;;2.37;;
3121;SDS011;1571;52.524;14.104;2023-09-07T11:39:46;3.43;;;3.13;;
3121;SDS011;1571;52.524;14.104;2023-09-07T11:42:14;3.33;;;3.00;;
3121;SDS011;1571;52.524;14.104;2023-09-07T11:44:43;3.47;;;2.80;;
3121;SDS011;1571;52.524;14.104;2023-09-07T11:47:11;2.73;;;2.30;;
3121;SDS011;1571;52.524;14.104;2023-09-07T11:49:39;6.13;;;2.70;;
3121;SDS011;1571;52.524;14.104;2023-09-07T11:52:07;3.03;;;2.83;;
3121;SDS011;1571;52.524;14.104;2023-09-07T11:54:36;2.80;;;2.60;;
3121;SDS011;1571;52.524;14.104;2023-09-07T11:57:06;3.90;;;3.40;;
3121;SDS011;1571;52.524;14.104;2023-09-07T11:59:34;4.40;;;3.47;;
3121;SDS011;1571;52.524;14.104;2023-09-07T12:02:22;3.07;;;2.77;;
3121;SDS011;1571;52.524;14.104;2023-09-07T12:04:50;2.80;;;2.60;;
3121;SDS011;1571;52.524;14.104;2023-09-07T12:07:19;3.10;;;2.90;;
3121;SDS011;1571;52.524;14.104;2023-09-07T12:09:48;2.53;;;2.13;;
3121;SDS011;1571;52.524;14.104;2023-09-07T12:12:18;3.23;;;2.80;;
3121;SDS011;1571;52.524;14.104;2023-09-07T12:14:47;2.37;;;2.17;;
3121;SDS011;1571;52.524;14.104;2023-09-07T12:17:15;3.80;;;2.60;;
3121;SDS011;1571;52.524;14.104;2023-09-07T12:19:44;3.97;;;2.50;;
3121;SDS011;1571;52.524;14.104;2023-09-07T12:22:13;3.03;;;2.77;;
3121;SDS011;1571;52.524;14.104;2023-09-07T12:24:41;2.93;;;2.67;;
3121;SDS011;1571;52.524;14.104;2023-09-07T12:27:09;3.93;;;2.97;;
3121;SDS011;1571;52.524;14.104;2023-09-07T12:29:39;2.17;;;2.07;;
3121;SDS011;1571;52.524;14.104;2023-09-07T12:32:07;2.70;;;2.50;;
3121;SDS011;1571;52.524;14.104;2023-09-07T12:34:36;2.80;;;2.60;;
3121;SDS011;1571;52.524;14.104;2023-09-07T12:37:04;3.73;;;2.37;;
3121;SDS011;1571;52.524;14.104;2023-09-07T12:39:32;2.97;;;2.77;;
3121;SDS011;1571;52.524;14.104;2023-09-07T12:42:01;3.00;;;2.50;;
3121;SDS011;1571;52.524;14.104;2023-09-07T12:44:30;2.73;;;2.53;;
3121;SDS011;1571;52.524;14.104;2023-09-07T12:47:00;3.30;;;3.10;;
3121;SDS011;1571;52.524;14.104;2023-09-07T12:49:28;2.80;;;2.60;;
3121;SDS011;1571;52.524;14.104;2023-09-07T12:51:57;2.93;;;2.73;;
3121;SDS011;1571;52.524;14.104;2023-09-07T12:54:25;3.60;;;3.30;;
3121;SDS011;1571;52.524;14.104;2023-09-07T12:56:53;2.97;;;2.37;;
3121;SDS011;1571;52.524;14.104;2023-09-07T12:59:22;3.20;;;2.90;;
3121;SDS011;1571;52.524;14.104;2023-09-07T13:01:50;2.60;;;2.40;;
3121;SDS011;1571;52.524;14.104;2023-09-07T13:04:23;3.10;;;2.80;;
3121;SDS011;1571;52.524;14.104;2023-09-07T13:06:52;2.70;;;2.50;;
3121;SDS011;1571;52.524;14.104;2023-09-07T13:09:20;2.43;;;2.23;;
3121;SDS011;1571;52.524;14.104;2023-09-07T13:11:48;3.10;;;2.80;;
3121;SDS011;1571;52.524;14.104;2023-09-07T13:14:16;2.70;;;2.50;;
3121;SDS011;1571;52.524;14.104;2023-09-07T13:16:44;2.33;;;2.13;;
3121;SDS011;1571;52.524;14.104;2023-09-07T13:19:13;2.60;;;2.40;;
3121;SDS011;1571;52.524;14.104;2023-09-07T13:21:43;3.67;;;2.80;;
3121;SDS011;1571;52.524;14.104;2023-09-07T13:24:11;3.83;;;3.03;;
3121;SDS011;1571;52.524;14.104;2023-09-07T13:26:39;4.27;;;3.07;;
3121;SDS011;1571;52.524;14.104;2023-09-07T13:29:08;4.07;;;2.50;;
3121;SDS011;1571;52.524;14.104;2023-09-07T13:31:36;2.70;;;2.30;;
3121;SDS011;1571;52.524;14.104;2023-09-07T13:34:04;2.73;;;2.53;;
3121;SDS011;1571;52.524;14.104;2023-09-07T13:36:33;2.83;;;2.63;;
3121;SDS011;1571;52.524;14.104;2023-09-07T13:39:03;3.70;;;3.20;;
3121;SDS011;1571;52.524;14.104;2023-09-07T13:41:31;2.17;;;2.07;;
3121;SDS011;1571;52.524;14.104;2023-09-07T13:43:58;3.27;;;2.97;;
3121;SDS011;1571;52.524;14.104;2023-09-07T13:46:27;3.40;;;3.13;;
3121;SDS011;1571;52.524;14.104;2023-09-07T13:48:56;4.50;;;3.33;;
3121;SDS011;1571;52.524;14.104;2023-09-07T13:51:24;3.23;;;2.80;;
3121;SDS011;1571;52.524;14.104;2023-09-07T13:53:55;4.53;;;3.27;;
3121;SDS011;1571;52.524;14.104;2023-09-07T13:56:25;3.60;;;3.33;;
3121;SDS011;1571;52.524;14.104;2023-09-07T13:58:53;5.20;;;3.43;;
3121;SDS011;1571;52.524;14.104;2023-09-07T14:01:21;3.60;;;3.30;;
3121;SDS011;1571;52.524;14.104;2023-09-07T14:03:51;3.60;;;2.90;;
3121;SDS011;1571;52.524;14.104;2023-09-07T14:06:19;3.93;;;3.10;;
3121;SDS011;1571;52.524;14.104;2023-09-07T14:08:51;2.67;;;2.47;;
3121;SDS011;1571;52.524;14.104;2023-09-07T14:11:19;4.13;;;3.17;;
3121;SDS011;1571;52.524;14.104;2023-09-07T14:13:50;3.13;;;2.93;;
3121;SDS011;1571;52.524;14.104;2023-09-07T14:16:19;3.80;;;3.50;;
3121;SDS011;1571;52.524;14.104;2023-09-07T14:18:47;3.30;;;3.00;;
3121;SDS011;1571;52.524;14.104;2023-09-07T14:21:16;2.97;;;2.77;;
3121;SDS011;1571;52.524;14.104;2023-09-07T14:23:44;2.90;;;2.70;;
3121;SDS011;1571;52.524;14.104;2023-09-07T14:26:13;3.73;;;3.03;;
3121;SDS011;1571;52.524;14.104;2023-09-07T14:28:41;4.40;;;3.10;;
3121;SDS011;1571;52.524;14.104;2023-09-07T14:31:11;3.40;;;3.20;;
3121;SDS011;1571;52.524;14.104;2023-09-07T14:33:39;4.40;;;3.47;;
3121;SDS011;1571;52.524;14.104;2023-09-07T14:36:09;3.30;;;3.00;;
3121;SDS011;1571;52.524;14.104;2023-09-07T14:38:37;3.00;;;2.67;;
3121;SDS011;1571;52.524;14.104;2023-09-07T14:41:08;3.80;;;3.40;;
3121;SDS011;1571;52.524;14.104;2023-09-07T14:43:38;3.13;;;2.93;;
3121;SDS011;1571;52.524;14.104;2023-09-07T14:46:07;2.63;;;2.40;;
3121;SDS011;1571;52.524;14.104;2023-09-07T14:48:38;2.77;;;2.40;;
3121;SDS011;1571;52.524;14.104;2023-09-07T14:51:06;5.23;;;3.57;;
3121;SDS011;1571;52.524;14.104;2023-09-07T14:53:34;2.77;;;2.50;;
3121;SDS011;1571;52.524;14.104;2023-09-07T14:56:03;4.10;;;3.03;;
3121;SDS011;1571;52.524;14.104;2023-09-07T14:58:31;3.03;;;2.83;;
3121;SDS011;1571;52.524;14.104;2023-09-07T15:01:00;3.23;;;3.03;;
3121;SDS011;1571;52.524;14.104;2023-09-07T15:03:30;3.43;;;3.13;;
3121;SDS011;1571;52.524;14.104;2023-09-07T15:06:00;3.80;;;3.53;;
3121;SDS011;1571;52.524;14.104;2023-09-07T15:08:28;4.10;;;3.07;;
3121;SDS011;1571;52.524;14.104;2023-09-07T15:10:57;3.37;;;3.07;;
3121;SDS011;1571;52.524;14.104;2023-09-07T15:13:26;3.30;;;3.00;;